sensor_id;sensor_type;location;lat;lon;timestamp;pressure;altitude;pressure_sealevel;temperature;humidity
22047;BME280;11187;49.412;20.956;2024-01-30T00:00:00;96977.53;;;-3.55;100.00
22047;BME280;11187;49.412;20.956;2024-01-30T00:02:47;96984.19;;;-3.56;100.00
22047;BME280;11187;49.412;20.956;2024-01-30T00:05:23;96981.56;;;-3.58;100.00
22047;BME280;11187;49.412;20.956;2024-01-30T00:08:10;96971.56;;;-3.58;100.00
22047;BME280;11187;49.412;20.956;2024-01-30T00:10:43;96971.44;;;-3.59;100.00
22047;BME280;11187;49.412;20.956;2024-01-30T00:13:30;96968.84;;;-3.61;100.00
22047;BME280;11187;49.412;20.956;2024-01-30T00:16:03;96966.91;;;-3.65;100.00
22047;BME280;11187;49.412;20.956;2024-01-30T00:18:53;96968.44;;;-3.67;100.00
22047;BME280;11187;49.412;20.956;2024-01-30T00:21:27;96966.72;;;-3.68;100.00
22047;BME280;11187;49.412;20.956;2024-01-30T00:24:14;96974.13;;;-3.69;100.00
22047;BME280;11187;49.412;20.956;2024-01-30T00:26:47;96976.31;;;-3.74;100.00
22047;BME280;11187;49.412;20.956;2024-01-30T00:29:34;96977.06;;;-3.75;100.00
22047;BME280;11187;49.412;20.956;2024-01-30T00:32:07;96977.84;;;-3.76;100.00
22047;BME280;11187;49.412;20.956;2024-01-30T00:34:54;96981.09;;;-3.77;100.00
22047;BME280;11187;49.412;20.956;2024-01-30T00:37:48;96976.09;;;-3.77;100.00
22047;BME280;11187;49.412;20.956;2024-01-30T00:40:21;96978.59;;;-3.77;100.00
22047;BME280;11187;49.412;20.956;2024-01-30T00:43:15;96981.09;;;-3.77;100.00
22047;BME280;11187;49.412;20.956;2024-01-30T00:46:11;96977.00;;;-3.76;100.00
22047;BME280;11187;49.412;20.956;2024-01-30T00:48:45;96976.03;;;-3.79;100.00
22047;BME280;11187;49.412;20.956;2024-01-30T00:51:32;96978.53;;;-3.79;100.00
22047;BME280;11187;49.412;20.956;2024-01-30T00:54:05;96977.66;;;-3.79;100.00
22047;BME280;11187;49.412;20.956;2024-01-30T00:56:52;96982.66;;;-3.79;100.00
22047;BME280;11187;49.412;20.956;2024-01-30T00:59:25;96985.81;;;-3.82;100.00
22047;BME280;11187;49.412;20.956;2024-01-30T01:02:12;96975.72;;;-3.83;100.00
22047;BME280;11187;49.412;20.956;2024-01-30T01:04:46;96978.41;;;-3.80;100.00
22047;BME280;11187;49.412;20.956;2024-01-30T01:07:40;96982.06;;;-3.75;100.00
22047;BME280;11187;49.412;20.956;2024-01-30T01:10:36;96974.00;;;-3.71;100.00
22047;BME280;11187;49.412;20.956;2024-01-30T01:13:09;96978.91;;;-3.72;100.00
22047;BME280;11187;49.412;20.956;2024-01-30T01:15:56;96979.50;;;-3.76;100.00
22047;BME280;11187;49.412;20.956;2024-01-30T01:18:29;96983.84;;;-3.74;100.00
22047;BME280;11187;49.412;20.956;2024-01-30T01:21:23;96978.91;;;-3.72;100.00
22047;BME280;11187;49.412;20.956;2024-01-30T01:23:56;96977.28;;;-3.72;100.00
22047;BME280;11187;49.412;20.956;2024-01-30T01:26:43;96974.88;;;-3.70;100.00
22047;BME280;11187;49.412;20.956;2024-01-30T01:29:16;96979.25;;;-3.68;100.00
22047;BME280;11187;49.412;20.956;2024-01-30T01:32:08;96972.97;;;-3.61;100.00
22047;BME280;11187;49.412;20.956;2024-01-30T01:34:41;96971.44;;;-3.59;100.00
22047;BME280;11187;49.412;20.956;2024-01-30T01:37:28;96975.78;;;-3.57;100.00
22047;BME280;11187;49.412;20.956;2024-01-30T01:40:01;96971.00;;;-3.53;100.00
22047;BME280;11187;49.412;20.956;2024-01-30T01:42:55;96966.59;;;-3.44;100.00
22047;BME280;11187;49.412;20.956;2024-01-30T01:45:49;96966.31;;;-3.36;100.00
22047;BME280;11187;49.412;20.956;2024-01-30T01:48:22;96967.47;;;-3.30;100.00
22047;BME280;11187;49.412;20.956;2024-01-30T01:51:09;96966.78;;;-3.28;100.00
22047;BME280;11187;49.412;20.956;2024-01-30T01:53:43;96966.69;;;-3.29;100.00
22047;BME280;11187;49.412;20.956;2024-01-30T01:56:31;96961.97;;;-3.25;100.00
22047;BME280;11187;49.412;20.956;2024-01-30T01:59:06;96956.41;;;-3.21;100.00
22047;BME280;11187;49.412;20.956;2024-01-30T02:01:55;96960.16;;;-3.14;100.00
22047;BME280;11187;49.412;20.956;2024-01-30T02:04:29;96957.94;;;-3.09;100.00
22047;BME280;11187;49.412;20.956;2024-01-30T02:07:24;96959.03;;;-3.06;100.00
22047;BME280;11187;49.412;20.956;2024-01-30T02:09:58;96958.06;;;-3.08;100.00
22047;BME280;11187;49.412;20.956;2024-01-30T02:12:52;96960.75;;;-3.05;100.00
22047;BME280;11187;49.412;20.956;2024-01-30T02:15:26;96957.78;;;-2.99;100.00
22047;BME280;11187;49.412;20.956;2024-01-30T02:18:13;96958.75;;;-2.97;100.00
22047;BME280;11187;49.412;20.956;2024-01-30T02:21:17;96956.31;;;-2.96;100.00
22047;BME280;11187;49.412;20.956;2024-01-30T02:23:58;96957.50;;;-2.90;100.00
22047;BME280;11187;49.412;20.956;2024-01-30T02:26:39;96958.53;;;-2.87;100.00
22047;BME280;11187;49.412;20.956;2024-01-30T02:29:26;96954.59;;;-2.83;100.00
22047;BME280;11187;49.412;20.956;2024-01-30T02:32:06;96948.13;;;-2.80;100.00
22047;BME280;11187;49.412;20.956;2024-01-30T02:34:46;96956.72;;;-2.76;100.00
22047;BME280;11187;49.412;20.956;2024-01-30T02:37:29;96956.81;;;-2.75;100.00
22047;BME280;11187;49.412;20.956;2024-01-30T02:40:09;96951.13;;;-2.72;100.00
22047;BME280;11187;49.412;20.956;2024-01-30T02:42:49;96948.03;;;-2.68;100.00
22047;BME280;11187;49.412;20.956;2024-01-30T02:45:29;96947.34;;;-2.65;100.00
22047;BME280;11187;49.412;20.956;2024-01-30T02:48:09;96950.91;;;-2.62;100.00
22047;BME280;11187;49.412;20.956;2024-01-30T02:50:49;96948.59;;;-2.59;100.00
22047;BME280;11187;49.412;20.956;2024-01-30T02:53:29;96947.91;;;-2.56;100.00
22047;BME280;11187;49.412;20.956;2024-01-30T02:56:09;96943.66;;;-2.57;100.00
22047;BME280;11187;49.412;20.956;2024-01-30T02:58:56;96947.22;;;-2.54;100.00
22047;BME280;11187;49.412;20.956;2024-01-30T03:01:50;96942.38;;;-2.50;100.00
22047;BME280;11187;49.412;20.956;2024-01-30T03:04:44;96945.00;;;-2.49;100.00
22047;BME280;11187;49.412;20.956;2024-01-30T03:07:17;96949.34;;;-2.46;100.00
22047;BME280;11187;49.412;20.956;2024-01-30T03:10:05;96938.63;;;-2.44;100.00
22047;BME280;11187;49.412;20.956;2024-01-30T03:12:39;96937.06;;;-2.42;100.00
22047;BME280;11187;49.412;20.956;2024-01-30T03:15:25;96940.53;;;-2.40;100.00
22047;BME280;11187;49.412;20.956;2024-01-30T03:17:58;96943.81;;;-2.41;100.00
22047;BME280;11187;49.412;20.956;2024-01-30T03:20:45;96941.41;;;-2.39;100.00
22047;BME280;11187;49.412;20.956;2024-01-30T03:23:20;96941.63;;;-2.36;100.00
22047;BME280;11187;49.412;20.956;2024-01-30T03:26:14;96940.81;;;-2.35;100.00
22047;BME280;11187;49.412;20.956;2024-01-30T03:28:48;96939.19;;;-2.35;100.00
22047;BME280;11187;49.412;20.956;2024-01-30T03:31:39;96941.00;;;-2.32;100.00
22047;BME280;11187;49.412;20.956;2024-01-30T03:34:20;96937.91;;;-2.28;100.00
22047;BME280;11187;49.412;20.956;2024-01-30T03:37:14;96942.34;;;-2.24;100.00
22047;BME280;11187;49.412;20.956;2024-01-30T03:40:08;96933.94;;;-2.24;100.00
22047;BME280;11187;49.412;20.956;2024-01-30T03:42:42;96935.78;;;-2.22;100.00
22047;BME280;11187;49.412;20.956;2024-01-30T03:45:28;96931.13;;;-2.16;100.00
22047;BME280;11187;49.412;20.956;2024-01-30T03:48:02;96926.19;;;-2.14;100.00
22047;BME280;11187;49.412;20.956;2024-01-30T03:50:48;96923.59;;;-2.16;100.00
22047;BME280;11187;49.412;20.956;2024-01-30T03:53:21;96935.09;;;-2.19;100.00
22047;BME280;11187;49.412;20.956;2024-01-30T03:56:09;96925.81;;;-2.20;100.00
22047;BME280;11187;49.412;20.956;2024-01-30T03:58:42;96925.75;;;-2.22;100.00
22047;BME280;11187;49.412;20.956;2024-01-30T04:01:36;96924.94;;;-2.21;100.00
22047;BME280;11187;49.412;20.956;2024-01-30T04:04:30;96924.25;;;-2.18;100.00
22047;BME280;11187;49.412;20.956;2024-01-30T04:07:03;96918.59;;;-2.16;100.00
22047;BME280;11187;49.412;20.956;2024-01-30T04:10:00;96924.38;;;-2.17;100.00
22047;BME280;11187;49.412;20.956;2024-01-30T04:12:54;96922.53;;;-2.19;100.00
22047;BME280;11187;49.412;20.956;2024-01-30T04:15:28;96919.19;;;-2.20;100.00
22047;BME280;11187;49.412;20.956;2024-01-30T04:18:14;96920.88;;;-2.19;100.00
22047;BME280;11187;49.412;20.956;2024-01-30T04:20:54;96915.69;;;-2.22;100.00
22047;BME280;11187;49.412;20.956;2024-01-30T04:23:34;96915.69;;;-2.22;100.00
22047;BME280;11187;49.412;20.956;2024-01-30T04:26:14;96922.44;;;-2.21;100.00
22047;BME280;11187;49.412;20.956;2024-01-30T04:28:54;96918.28;;;-2.20;100.00
22047;BME280;11187;49.412;20.956;2024-01-30T04:31:36;96919.84;;;-2.22;100.00
22047;BME280;11187;49.412;20.956;2024-01-30T04:34:16;96913.25;;;-2.20;100.00
22047;BME280;11187;49.412;20.956;2024-01-30T04:36:57;96909.13;;;-2.20;100.00
22047;BME280;11187;49.412;20.956;2024-01-30T04:39:43;96924.25;;;-2.18;100.00
22047;BME280;11187;49.412;20.956;2024-01-30T04:42:23;96923.28;;;-2.20;100.00
22047;BME280;11187;49.412;20.956;2024-01-30T04:45:10;96924.09;;;-2.21;100.00
22047;BME280;11187;49.412;20.956;2024-01-30T04:47:50;96931.63;;;-2.21;100.00
22047;BME280;11187;49.412;20.956;2024-01-30T04:50:37;96928.16;;;-2.23;100.00
22047;BME280;11187;49.412;20.956;2024-01-30T04:53:17;96925.75;;;-2.22;100.00
22047;BME280;11187;49.412;20.956;2024-01-30T04:56:05;96929.00;;;-2.23;100.00
22047;BME280;11187;49.412;20.956;2024-01-30T04:58:45;96929.00;;;-2.23;100.00
22047;BME280;11187;49.412;20.956;2024-01-30T05:01:25;96926.50;;;-2.23;100.00
22047;BME280;11187;49.412;20.956;2024-01-30T05:04:09;96928.16;;;-2.23;100.00
22047;BME280;11187;49.412;20.956;2024-01-30T05:06:55;96925.38;;;-2.28;100.00
22047;BME280;11187;49.412;20.956;2024-01-30T05:09:35;96931.16;;;-2.29;100.00
22047;BME280;11187;49.412;20.956;2024-01-30T05:12:15;96934.38;;;-2.32;100.00
22047;BME280;11187;49.412;20.956;2024-01-30T05:14:55;96931.94;;;-2.30;100.00
22047;BME280;11187;49.412;20.956;2024-01-30T05:17:42;96931.75;;;-2.33;100.00
22047;BME280;11187;49.412;20.956;2024-01-30T05:20:22;96926.63;;;-2.35;100.00
22047;BME280;11187;49.412;20.956;2024-01-30T05:23:09;96930.69;;;-2.37;100.00
22047;BME280;11187;49.412;20.956;2024-01-30T05:25:43;96925.50;;;-2.40;100.00
22047;BME280;11187;49.412;20.956;2024-01-30T05:28:29;96929.72;;;-2.39;100.00
22047;BME280;11187;49.412;20.956;2024-01-30T05:31:03;96926.25;;;-2.41;100.00
22047;BME280;11187;49.412;20.956;2024-01-30T05:33:49;96928.88;;;-2.39;100.00
22047;BME280;11187;49.412;20.956;2024-01-30T05:36:23;96924.63;;;-2.40;100.00
22047;BME280;11187;49.412;20.956;2024-01-30T05:39:16;96924.53;;;-2.42;100.00
22047;BME280;11187;49.412;20.956;2024-01-30T05:42:10;96918.44;;;-2.45;100.00
22047;BME280;11187;49.412;20.956;2024-01-30T05:45:04;96926.66;;;-2.48;100.00
22047;BME280;11187;49.412;20.956;2024-01-30T05:47:58;96927.56;;;-2.47;100.00
22047;BME280;11187;49.412;20.956;2024-01-30T05:50:32;96920.69;;;-2.50;100.00
22047;BME280;11187;49.412;20.956;2024-01-30T05:53:18;96926.66;;;-2.48;100.00
22047;BME280;11187;49.412;20.956;2024-01-30T05:55:51;96923.19;;;-2.50;100.00
22047;BME280;11187;49.412;20.956;2024-01-30T05:58:38;96927.28;;;-2.52;100.00
22047;BME280;11187;49.412;20.956;2024-01-30T06:01:11;96938.22;;;-2.50;100.00
22047;BME280;11187;49.412;20.956;2024-01-30T06:03:58;96937.31;;;-2.52;100.00
22047;BME280;11187;49.412;20.956;2024-01-30T06:06:32;96936.34;;;-2.54;100.00
22047;BME280;11187;49.412;20.956;2024-01-30T06:09:25;96941.06;;;-2.59;100.00
22047;BME280;11187;49.412;20.956;2024-01-30T06:12:19;96933.56;;;-2.59;100.00
22047;BME280;11187;49.412;20.956;2024-01-30T06:15:13;96939.50;;;-2.57;100.00
22047;BME280;11187;49.412;20.956;2024-01-30T06:18:07;96942.13;;;-2.55;100.00
22047;BME280;11187;49.412;20.956;2024-01-30T06:20:41;96935.44;;;-2.55;100.00
22047;BME280;11187;49.412;20.956;2024-01-30T06:23:27;96940.41;;;-2.56;100.00
22047;BME280;11187;49.412;20.956;2024-01-30T06:26:00;96945.41;;;-2.56;100.00
22047;BME280;11187;49.412;20.956;2024-01-30T06:28:47;96946.09;;;-2.59;100.00
22047;BME280;11187;49.412;20.956;2024-01-30T06:31:20;96952.03;;;-2.57;100.00
22047;BME280;11187;49.412;20.956;2024-01-30T06:34:08;96948.78;;;-2.56;100.00
22047;BME280;11187;49.412;20.956;2024-01-30T06:36:55;96957.16;;;-2.55;100.00
22047;BME280;11187;49.412;20.956;2024-01-30T06:39:49;96959.78;;;-2.54;100.00
22047;BME280;11187;49.412;20.956;2024-01-30T06:42:23;96955.44;;;-2.56;100.00
22047;BME280;11187;49.412;20.956;2024-01-30T06:45:09;96957.25;;;-2.54;100.00
22047;BME280;11187;49.412;20.956;2024-01-30T06:47:43;96959.19;;;-2.49;100.00
22047;BME280;11187;49.412;20.956;2024-01-30T06:50:36;96957.66;;;-2.47;100.00
22047;BME280;11187;49.412;20.956;2024-01-30T06:53:10;96953.56;;;-2.45;100.00
22047;BME280;11187;49.412;20.956;2024-01-30T06:55:56;96960.50;;;-2.41;100.00
22047;BME280;11187;49.412;20.956;2024-01-30T06:58:30;96959.81;;;-2.39;100.00
22047;BME280;11187;49.412;20.956;2024-01-30T07:01:28;96954.22;;;-2.35;100.00
22047;BME280;11187;49.412;20.956;2024-01-30T07:04:22;96951.13;;;-2.31;100.00
22047;BME280;11187;49.412;20.956;2024-01-30T07:07:18;96961.44;;;-2.26;100.00
22047;BME280;11187;49.412;20.956;2024-01-30T07:10:12;96955.84;;;-2.22;100.00
22047;BME280;11187;49.412;20.956;2024-01-30T07:13:06;96957.56;;;-2.21;100.00
22047;BME280;11187;49.412;20.956;2024-01-30T07:15:40;96960.19;;;-2.19;100.00
22047;BME280;11187;49.412;20.956;2024-01-30T07:18:33;96950.41;;;-2.15;100.00
22047;BME280;11187;49.412;20.956;2024-01-30T07:21:07;96957.34;;;-2.11;100.00
22047;BME280;11187;49.412;20.956;2024-01-30T07:23:57;96955.13;;;-2.06;100.00
22047;BME280;11187;49.412;20.956;2024-01-30T07:26:36;96960.31;;;-2.03;100.00
22047;BME280;11187;49.412;20.956;2024-01-30T07:29:19;96956.41;;;-1.98;100.00
22047;BME280;11187;49.412;20.956;2024-01-30T07:31:59;96963.47;;;-1.92;100.00
22047;BME280;11187;49.412;20.956;2024-01-30T07:34:46;96958.53;;;-1.91;100.00
22047;BME280;11187;49.412;20.956;2024-01-30T07:37:50;96959.91;;;-1.96;100.00
22047;BME280;11187;49.412;20.956;2024-01-30T07:40:24;96962.34;;;-1.97;100.00
22047;BME280;11187;49.412;20.956;2024-01-30T07:43:17;96960.84;;;-1.94;100.00
22047;BME280;11187;49.412;20.956;2024-01-30T07:45:51;96958.53;;;-1.91;100.00
22047;BME280;11187;49.412;20.956;2024-01-30T07:48:37;96960.25;;;-1.90;100.00
22047;BME280;11187;49.412;20.956;2024-01-30T07:51:11;96956.09;;;-1.89;100.00
22047;BME280;11187;49.412;20.956;2024-01-30T07:54:04;96953.78;;;-1.86;100.00
22047;BME280;11187;49.412;20.956;2024-01-30T07:56:59;96952.41;;;-1.81;100.00
22047;BME280;11187;49.412;20.956;2024-01-30T07:59:53;96955.19;;;-1.76;100.00
22047;BME280;11187;49.412;20.956;2024-01-30T08:02:50;96946.00;;;-1.76;100.00
22047;BME280;11187;49.412;20.956;2024-01-30T08:05:24;96955.88;;;-1.79;100.00
22047;BME280;11187;49.412;20.956;2024-01-30T08:08:10;96956.16;;;-1.74;100.00
22047;BME280;11187;49.412;20.956;2024-01-30T08:10:44;96960.47;;;-1.72;100.00
22047;BME280;11187;49.412;20.956;2024-01-30T08:13:30;96950.72;;;-1.67;100.00
22047;BME280;11187;49.412;20.956;2024-01-30T08:16:04;96956.78;;;-1.63;100.00
22047;BME280;11187;49.412;20.956;2024-01-30T08:18:55;96957.53;;;-1.64;100.00
22047;BME280;11187;49.412;20.956;2024-01-30T08:21:31;96951.75;;;-1.63;100.00
22047;BME280;11187;49.412;20.956;2024-01-30T08:24:20;96954.28;;;-1.63;100.00
22047;BME280;11187;49.412;20.956;2024-01-30T08:26:54;96953.59;;;-1.61;100.00
22047;BME280;11187;49.412;20.956;2024-01-30T08:29:42;96957.38;;;-1.53;100.00
22047;BME280;11187;49.412;20.956;2024-01-30T08:32:16;96956.09;;;-1.46;100.00
22047;BME280;11187;49.412;20.956;2024-01-30T08:35:02;96949.25;;;-1.49;100.00
22047;BME280;11187;49.412;20.956;2024-01-30T08:37:56;96954.38;;;-1.47;100.00
22047;BME280;11187;49.412;20.956;2024-01-30T08:40:50;96948.56;;;-1.46;100.00
22047;BME280;11187;49.412;20.956;2024-01-30T08:43:24;96948.66;;;-1.44;100.00
22047;BME280;11187;49.412;20.956;2024-01-30T08:46:19;96950.31;;;-1.45;100.00
22047;BME280;11187;49.412;20.956;2024-01-30T08:49:13;96950.47;;;-1.42;100.00
22047;BME280;11187;49.412;20.956;2024-01-30T08:51:47;96952.38;;;-1.38;100.00
22047;BME280;11187;49.412;20.956;2024-01-30T08:54:40;96951.69;;;-1.35;100.00
22047;BME280;11187;49.412;20.956;2024-01-30T08:57:14;96952.81;;;-1.30;100.00
22047;BME280;11187;49.412;20.956;2024-01-30T09:00:00;96950.50;;;-1.27;100.00
22047;BME280;11187;49.412;20.956;2024-01-30T09:02:38;96951.59;;;-1.22;100.00
22047;BME280;11187;49.412;20.956;2024-01-30T09:05:24;96948.66;;;-1.15;100.00
22047;BME280;11187;49.412;20.956;2024-01-30T09:07:58;96947.19;;;-1.11;100.00
22047;BME280;11187;49.412;20.956;2024-01-30T09:10:44;96945.09;;;-1.03;100.00
22047;BME280;11187;49.412;20.956;2024-01-30T09:13:18;96942.94;;;-0.97;100.00
22047;BME280;11187;49.412;20.956;2024-01-30T09:16:04;96931.56;;;-0.91;100.00
22047;BME280;11187;49.412;20.956;2024-01-30T09:18:38;96928.75;;;-0.80;100.00
22047;BME280;11187;49.412;20.956;2024-01-30T09:21:24;96926.03;;;-0.69;100.00
22047;BME280;11187;49.412;20.956;2024-01-30T09:24:02;96921.81;;;-0.53;100.00
22047;BME280;11187;49.412;20.956;2024-01-30T09:26:56;96921.00;;;-0.37;100.00
22047;BME280;11187;49.412;20.956;2024-01-30T09:29:30;96920.75;;;-0.26;100.00
22047;BME280;11187;49.412;20.956;2024-01-30T09:32:16;96920.72;;;-0.11;100.00
22047;BME280;11187;49.412;20.956;2024-01-30T09:34:51;96916.38;;;0.03;100.00
22047;BME280;11187;49.412;20.956;2024-01-30T09:37:44;96923.53;;;0.12;100.00
22047;BME280;11187;49.412;20.956;2024-01-30T09:40:18;96917.94;;;0.17;100.00
22047;BME280;11187;49.412;20.956;2024-01-30T09:43:17;96922.25;;;0.20;100.00
22047;BME280;11187;49.412;20.956;2024-01-30T09:46:15;96922.19;;;0.18;100.00
22047;BME280;11187;49.412;20.956;2024-01-30T09:49:09;96922.97;;;0.17;100.00
22047;BME280;11187;49.412;20.956;2024-01-30T09:52:05;96919.50;;;0.15;100.00
22047;BME280;11187;49.412;20.956;2024-01-30T09:55:00;96905.13;;;0.13;100.00
22047;BME280;11187;49.412;20.956;2024-01-30T09:57:54;96909.28;;;0.12;100.00
22047;BME280;11187;49.412;20.956;2024-01-30T10:00:48;96905.91;;;0.12;100.00
22047;BME280;11187;49.412;20.956;2024-01-30T10:03:25;96898.34;;;0.12;100.00
22047;BME280;11187;49.412;20.956;2024-01-30T10:06:18;96900.16;;;0.14;100.00
22047;BME280;11187;49.412;20.956;2024-01-30T10:08:54;96896.78;;;0.14;100.00
22047;BME280;11187;49.412;20.956;2024-01-30T10:11:40;96894.31;;;0.15;100.00
22047;BME280;11187;49.412;20.956;2024-01-30T10:14:14;96889.22;;;0.14;100.00
22047;BME280;11187;49.412;20.956;2024-01-30T10:17:08;96892.66;;;0.16;100.00
22047;BME280;11187;49.412;20.956;2024-01-30T10:20:13;96890.13;;;0.16;100.00
22047;BME280;11187;49.412;20.956;2024-01-30T10:22:47;96881.81;;;0.17;100.00
22047;BME280;11187;49.412;20.956;2024-01-30T10:25:35;96875.34;;;0.22;100.00
22047;BME280;11187;49.412;20.956;2024-01-30T10:28:15;96872.91;;;0.24;100.00
22047;BME280;11187;49.412;20.956;2024-01-30T10:31:02;96873.84;;;0.26;100.00
22047;BME280;11187;49.412;20.956;2024-01-30T10:33:40;96871.47;;;0.29;100.00
22047;BME280;11187;49.412;20.956;2024-01-30T10:36:46;96858.13;;;0.30;100.00
22047;BME280;11187;49.412;20.956;2024-01-30T10:39:29;96862.47;;;0.34;100.00
22047;BME280;11187;49.412;20.956;2024-01-30T10:42:20;96850.06;;;0.37;100.00
22047;BME280;11187;49.412;20.956;2024-01-30T10:45:07;96862.03;;;0.41;100.00
22047;BME280;11187;49.412;20.956;2024-01-30T10:47:53;96847.75;;;0.41;100.00
22047;BME280;11187;49.412;20.956;2024-01-30T10:50:37;96841.91;;;0.43;100.00
22047;BME280;11187;49.412;20.956;2024-01-30T10:53:31;96837.91;;;0.46;100.00
22047;BME280;11187;49.412;20.956;2024-01-30T10:56:14;96843.09;;;0.49;100.00
22047;BME280;11187;49.412;20.956;2024-01-30T10:59:02;96842.44;;;0.53;100.00
22047;BME280;11187;49.412;20.956;2024-01-30T11:01:45;96839.19;;;0.56;100.00
22047;BME280;11187;49.412;20.956;2024-01-30T11:04:25;96836.91;;;0.60;100.00
22047;BME280;11187;49.412;20.956;2024-01-30T11:07:16;96843.81;;;0.65;100.00
22047;BME280;11187;49.412;20.956;2024-01-30T11:10:04;96830.41;;;0.66;100.00
22047;BME280;11187;49.412;20.956;2024-01-30T11:12:46;96825.53;;;0.69;100.00
22047;BME280;11187;49.412;20.956;2024-01-30T11:15:25;96825.66;;;0.72;100.00
22047;BME280;11187;49.412;20.956;2024-01-30T11:18:06;96818.31;;;0.76;100.00
22047;BME280;11187;49.412;20.956;2024-01-30T11:20:46;96816.00;;;0.81;100.00
22047;BME280;11187;49.412;20.956;2024-01-30T11:23:27;96817.81;;;0.83;100.00
22047;BME280;11187;49.412;20.956;2024-01-30T11:26:10;96824.59;;;0.85;100.00
22047;BME280;11187;49.412;20.956;2024-01-30T11:28:52;96809.53;;;0.86;100.00
22047;BME280;11187;49.412;20.956;2024-01-30T11:31:32;96810.53;;;0.90;100.00
22047;BME280;11187;49.412;20.956;2024-01-30T11:34:14;96808.97;;;0.92;100.00
22047;BME280;11187;49.412;20.956;2024-01-30T11:37:09;96806.50;;;0.93;100.00
22047;BME280;11187;49.412;20.956;2024-01-30T11:39:53;96806.56;;;0.95;100.00
22047;BME280;11187;49.412;20.956;2024-01-30T11:42:34;96801.59;;;0.96;100.00
22047;BME280;11187;49.412;20.956;2024-01-30T11:45:14;96798.28;;;0.97;100.00
22047;BME280;11187;49.412;20.956;2024-01-30T11:47:55;96796.69;;;0.99;100.00
22047;BME280;11187;49.412;20.956;2024-01-30T11:50:38;96786.69;;;1.01;100.00
22047;BME280;11187;49.412;20.956;2024-01-30T11:53:31;96792.56;;;1.01;100.00
22047;BME280;11187;49.412;20.956;2024-01-30T11:56:07;96784.28;;;1.04;100.00
22047;BME280;11187;49.412;20.956;2024-01-30T11:59:01;96780.13;;;1.04;100.00
22047;BME280;11187;49.412;20.956;2024-01-30T12:01:55;96776.91;;;1.09;100.00
22047;BME280;11187;49.412;20.956;2024-01-30T12:04:29;96773.75;;;1.13;100.00
22047;BME280;11187;49.412;20.956;2024-01-30T12:07:15;96779.81;;;1.16;100.00
22047;BME280;11187;49.412;20.956;2024-01-30T12:09:55;96772.38;;;1.19;100.00
22047;BME280;11187;49.412;20.956;2024-01-30T12:12:35;96771.63;;;1.22;100.00
22047;BME280;11187;49.412;20.956;2024-01-30T12:15:18;96772.56;;;1.24;100.00
22047;BME280;11187;49.412;20.956;2024-01-30T12:18:05;96768.44;;;1.26;100.00
22047;BME280;11187;49.412;20.956;2024-01-30T12:20:56;96765.13;;;1.27;100.00
22047;BME280;11187;49.412;20.956;2024-01-30T12:23:44;96758.47;;;1.29;100.00
22047;BME280;11187;49.412;20.956;2024-01-30T12:26:17;96760.28;;;1.32;100.00
22047;BME280;11187;49.412;20.956;2024-01-30T12:29:07;96757.91;;;1.35;100.00
22047;BME280;11187;49.412;20.956;2024-01-30T12:31:42;96755.47;;;1.36;100.00
22047;BME280;11187;49.412;20.956;2024-01-30T12:34:40;96759.81;;;1.40;100.00
22047;BME280;11187;49.412;20.956;2024-01-30T12:37:41;96753.34;;;1.45;100.00
22047;BME280;11187;49.412;20.956;2024-01-30T12:40:34;96746.81;;;1.51;100.00
22047;BME280;11187;49.412;20.956;2024-01-30T12:43:29;96746.94;;;1.54;100.00
22047;BME280;11187;49.412;20.956;2024-01-30T12:46:29;96748.69;;;1.55;100.00
22047;BME280;11187;49.412;20.956;2024-01-30T12:49:03;96754.66;;;1.57;100.00
22047;BME280;11187;49.412;20.956;2024-01-30T12:51:49;96753.91;;;1.59;100.00
22047;BME280;11187;49.412;20.956;2024-01-30T12:54:23;96750.66;;;1.62;100.00
22047;BME280;11187;49.412;20.956;2024-01-30T12:57:18;96748.25;;;1.65;100.00
22047;BME280;11187;49.412;20.956;2024-01-30T13:00:11;96750.00;;;1.66;100.00
22047;BME280;11187;49.412;20.956;2024-01-30T13:03:05;96750.03;;;1.67;100.00
22047;BME280;11187;49.412;20.956;2024-01-30T13:06:02;96740.00;;;1.69;100.00
22047;BME280;11187;49.412;20.956;2024-01-30T13:08:36;96740.94;;;1.71;100.00
22047;BME280;11187;49.412;20.956;2024-01-30T13:11:29;96735.09;;;1.72;100.00
22047;BME280;11187;49.412;20.956;2024-01-30T13:14:03;96737.69;;;1.74;100.00
22047;BME280;11187;49.412;20.956;2024-01-30T13:16:49;96731.09;;;1.77;100.00
22047;BME280;11187;49.412;20.956;2024-01-30T13:19:23;96730.22;;;1.77;100.00
22047;BME280;11187;49.412;20.956;2024-01-30T13:22:16;96738.72;;;1.79;100.00
22047;BME280;11187;49.412;20.956;2024-01-30T13:25:10;96733.63;;;1.77;100.00
22047;BME280;11187;49.412;20.956;2024-01-30T13:28:04;96733.56;;;1.76;100.00
22047;BME280;11187;49.412;20.956;2024-01-30T13:30:38;96734.41;;;1.76;100.00
22047;BME280;11187;49.412;20.956;2024-01-30T13:33:31;96726.84;;;1.76;100.00
22047;BME280;11187;49.412;20.956;2024-01-30T13:36:25;96730.09;;;1.74;100.00
22047;BME280;11187;49.412;20.956;2024-01-30T13:39:19;96725.13;;;1.75;100.00
22047;BME280;11187;49.412;20.956;2024-01-30T13:41:59;96726.75;;;1.75;100.00
22047;BME280;11187;49.412;20.956;2024-01-30T13:44:52;96722.59;;;1.75;100.00
22047;BME280;11187;49.412;20.956;2024-01-30T13:47:26;96714.22;;;1.76;100.00
22047;BME280;11187;49.412;20.956;2024-01-30T13:50:20;96722.53;;;1.74;100.00
22047;BME280;11187;49.412;20.956;2024-01-30T13:53:14;96715.63;;;1.70;100.00
22047;BME280;11187;49.412;20.956;2024-01-30T13:55:48;96721.47;;;1.69;100.00
22047;BME280;11187;49.412;20.956;2024-01-30T13:58:34;96708.88;;;1.69;100.00
22047;BME280;11187;49.412;20.956;2024-01-30T14:01:09;96713.91;;;1.69;100.00
22047;BME280;11187;49.412;20.956;2024-01-30T14:03:56;96717.22;;;1.67;100.00
22047;BME280;11187;49.412;20.956;2024-01-30T14:06:34;96719.69;;;1.66;100.00
22047;BME280;11187;49.412;20.956;2024-01-30T14:09:35;96716.25;;;1.64;100.00